createdAt,value
2018-02-21T00:01:21.897Z,1.80
2018-02-21T00:03:49.401Z,1.80
2018-02-21T00:06:16.897Z,1.90
2018-02-21T00:08:44.397Z,1.90
2018-02-21T00:11:11.889Z,1.90
2018-02-21T00:13:39.392Z,1.80
2018-02-21T00:16:07.645Z,1.90
2018-02-21T00:18:35.141Z,1.80
2018-02-21T00:21:02.650Z,1.90
2018-02-21T00:23:30.150Z,1.90
2018-02-21T00:25:58.413Z,1.90
2018-02-21T00:28:27.629Z,1.80
2018-02-21T00:30:55.121Z,1.70
2018-02-21T00:33:22.622Z,1.70
2018-02-21T00:35:50.899Z,1.70
2018-02-21T00:38:19.172Z,1.70
2018-02-21T00:40:47.437Z,1.70
2018-02-21T00:43:16.524Z,1.60
2018-02-21T00:45:44.053Z,1.60
2018-02-21T00:48:11.627Z,1.70
2018-02-21T00:50:39.825Z,1.60
2018-02-21T00:53:07.346Z,1.50
2018-02-21T00:55:34.855Z,1.50
2018-02-21T00:58:03.179Z,1.60
2018-02-21T01:00:30.701Z,1.50
2018-02-21T01:02:58.197Z,1.60
2018-02-21T01:05:25.668Z,1.60
2018-02-21T01:07:53.165Z,1.60
2018-02-21T01:10:21.413Z,1.60
2018-02-21T01:12:48.896Z,1.50
2018-02-21T01:15:17.227Z,1.60
2018-02-21T01:17:44.716Z,1.50
2018-02-21T01:20:12.291Z,1.60
2018-02-21T01:22:40.567Z,1.50
2018-02-21T01:25:08.844Z,1.50
2018-02-21T01:27:37.096Z,1.40
2018-02-21T01:30:04.580Z,1.40
2018-02-21T01:32:32.828Z,1.50
2018-02-21T01:35:00.316Z,1.40
2018-02-21T01:37:28.579Z,1.60
2018-02-21T01:39:56.828Z,1.60
2018-02-21T01:42:24.313Z,1.50
2018-02-21T01:44:52.592Z,1.60
2018-02-21T01:47:20.835Z,1.60
2018-02-21T01:49:48.317Z,1.50
2018-02-21T01:52:16.606Z,1.50
2018-02-21T01:54:44.880Z,1.50
2018-02-21T01:57:13.156Z,1.40
2018-02-21T01:59:41.416Z,1.50
2018-02-21T02:02:09.677Z,1.40
2018-02-21T02:04:37.252Z,1.40
2018-02-21T02:07:04.750Z,1.40
2018-02-21T02:09:32.236Z,1.50
2018-02-21T02:11:59.768Z,1.40
2018-02-21T02:14:27.253Z,1.30
2018-02-21T02:16:54.845Z,1.30
2018-02-21T02:19:23.094Z,1.30
2018-02-21T02:21:50.571Z,1.30
2018-02-21T02:24:18.073Z,1.30
2018-02-21T02:26:45.560Z,1.30
2018-02-21T02:29:13.041Z,1.40
2018-02-21T02:31:40.559Z,1.30
2018-02-21T02:34:08.048Z,1.20
2018-02-21T02:36:35.629Z,1.20
2018-02-21T02:39:15.743Z,1.20
2018-02-21T02:41:43.220Z,1.10
2018-02-21T02:44:10.706Z,1.20
2018-02-21T02:46:39.044Z,1.20
2018-02-21T02:49:06.631Z,1.10
2018-02-21T02:51:34.895Z,1.10
2018-02-21T02:54:03.155Z,1.10
2018-02-21T02:56:30.649Z,1.00
2018-02-21T02:58:58.910Z,1.10
2018-02-21T03:01:27.166Z,1.10
2018-02-21T03:03:54.645Z,1.10
2018-02-21T03:06:22.893Z,1.20
2018-02-21T03:08:50.402Z,1.10
2018-02-21T03:11:17.896Z,1.20
2018-02-21T03:13:45.380Z,1.20
2018-02-21T03:16:13.738Z,1.20
2018-02-21T03:18:41.352Z,1.20
2018-02-21T03:21:09.015Z,1.20
2018-02-21T03:23:36.719Z,1.10
2018-02-21T03:26:04.213Z,1.10
2018-02-21T03:28:32.578Z,1.00
2018-02-21T03:31:00.272Z,0.90
2018-02-21T03:33:27.874Z,1.00
2018-02-21T03:35:55.364Z,1.00
2018-02-21T03:38:23.196Z,1.00
2018-02-21T03:40:50.911Z,1.00
2018-02-21T03:43:18.503Z,1.10
2018-02-21T03:45:46.150Z,1.00
2018-02-21T03:48:13.833Z,1.00
2018-02-21T03:50:41.448Z,1.00
2018-02-21T03:53:09.692Z,1.00
2018-02-21T03:55:37.243Z,0.90
2018-02-21T03:58:04.832Z,1.00
2018-02-21T04:00:33.071Z,0.90
2018-02-21T04:03:00.559Z,0.90
2018-02-21T04:05:28.044Z,1.00
2018-02-21T04:07:55.536Z,1.00
2018-02-21T04:10:23.015Z,1.00
2018-02-21T04:12:50.495Z,1.00
2018-02-21T04:15:18.747Z,0.80
2018-02-21T04:17:46.324Z,0.80
2018-02-21T04:20:14.564Z,0.70
2018-02-21T04:22:42.056Z,0.70
2018-02-21T04:25:10.300Z,0.70
2018-02-21T04:27:37.909Z,0.60
2018-02-21T04:30:06.207Z,0.60
2018-02-21T04:32:33.688Z,0.50
2018-02-21T04:35:01.175Z,0.40
2018-02-21T04:37:28.735Z,0.40
2018-02-21T04:39:56.227Z,0.40
2018-02-21T04:42:23.797Z,0.50
2018-02-21T04:44:51.302Z,0.60
2018-02-21T04:47:18.786Z,0.60
2018-02-21T04:49:46.284Z,0.60
2018-02-21T04:52:13.879Z,0.70
2018-02-21T04:54:47.128Z,0.70
2018-02-21T04:57:20.432Z,0.70
2018-02-21T04:59:48.701Z,0.70
2018-02-21T05:02:16.181Z,0.70
2018-02-21T05:04:43.659Z,0.70
2018-02-21T05:07:11.137Z,0.70
2018-02-21T05:09:39.388Z,0.70
2018-02-21T05:12:06.880Z,0.60
2018-02-21T05:14:34.389Z,0.70
2018-02-21T05:17:02.772Z,0.70
2018-02-21T05:19:31.756Z,0.60
2018-02-21T05:21:59.237Z,0.60
2018-02-21T05:24:26.805Z,0.70
2018-02-21T05:26:55.061Z,0.70
2018-02-21T05:29:22.545Z,0.60
2018-02-21T05:31:50.844Z,0.70
2018-02-21T05:34:18.329Z,0.60
2018-02-21T05:36:45.816Z,0.70
2018-02-21T05:39:13.295Z,0.70
2018-02-21T05:41:40.846Z,0.70
2018-02-21T05:44:09.116Z,0.70
2018-02-21T05:46:37.383Z,0.70
2018-02-21T05:49:05.636Z,0.70
2018-02-21T05:51:33.136Z,0.60
2018-02-21T05:54:01.379Z,0.60
2018-02-21T05:56:28.862Z,0.60
2018-02-21T05:58:57.133Z,0.60
2018-02-21T06:01:25.380Z,0.60
2018-02-21T06:03:52.968Z,0.60
2018-02-21T06:06:21.209Z,0.70
2018-02-21T06:08:48.812Z,0.60
2018-02-21T06:11:17.080Z,0.70
2018-02-21T06:13:45.390Z,0.70
2018-02-21T06:16:12.868Z,0.70
2018-02-21T06:18:40.351Z,0.70
2018-02-21T06:21:07.830Z,0.70
2018-02-21T06:23:36.090Z,0.80
2018-02-21T06:26:03.639Z,0.70
2018-02-21T06:28:31.148Z,0.80
2018-02-21T06:30:58.635Z,0.80
2018-02-21T06:33:26.125Z,0.80
2018-02-21T06:35:54.386Z,0.80
2018-02-21T06:38:21.863Z,0.70
2018-02-21T06:40:50.117Z,0.90
2018-02-21T06:43:17.597Z,0.90
2018-02-21T06:45:45.852Z,1.00
2018-02-21T06:48:13.341Z,0.90
2018-02-21T06:50:41.588Z,1.00
2018-02-21T06:53:09.160Z,0.90
2018-02-21T06:55:37.420Z,1.00
2018-02-21T06:58:04.904Z,1.00
2018-02-21T07:00:33.157Z,1.20
2018-02-21T07:03:00.640Z,1.10
2018-02-21T07:05:28.891Z,1.20
2018-02-21T07:07:57.136Z,1.30
2018-02-21T07:10:24.619Z,1.20
2018-02-21T07:12:52.112Z,1.30
2018-02-21T07:15:19.624Z,1.30
2018-02-21T07:17:47.082Z,1.30
2018-02-21T07:20:14.664Z,1.40
2018-02-21T07:22:42.244Z,1.40
2018-02-21T07:25:09.818Z,1.40
2018-02-21T07:27:37.322Z,1.40
2018-02-21T07:30:04.808Z,1.50
2018-02-21T07:32:33.071Z,1.70
2018-02-21T07:35:01.322Z,1.80
2018-02-21T07:37:28.805Z,1.70
2018-02-21T07:39:57.056Z,1.90
2018-02-21T07:42:24.544Z,1.80
2018-02-21T07:44:52.786Z,2.10
2018-02-21T07:47:20.292Z,2.00
2018-02-21T07:49:47.834Z,2.10
2018-02-21T07:52:16.104Z,2.30
2018-02-21T07:54:44.364Z,2.40
2018-02-21T07:57:11.958Z,2.40
2018-02-21T07:59:39.437Z,2.50
2018-02-21T08:02:06.930Z,2.70
2018-02-21T08:04:34.431Z,2.80
2018-02-21T08:07:02.552Z,2.90
2018-02-21T08:09:30.141Z,3.10
2018-02-21T08:11:58.417Z,3.10
2018-02-21T08:14:26.708Z,3.00
2018-02-21T08:16:54.192Z,3.00
2018-02-21T08:19:21.682Z,3.00
2018-02-21T08:21:49.170Z,3.30
2018-02-21T08:24:17.673Z,3.80
2018-02-21T08:26:45.289Z,3.70
2018-02-21T08:29:12.979Z,3.90
2018-02-21T08:31:41.690Z,4.50
2018-02-21T08:34:09.226Z,4.40
2018-02-21T08:36:37.564Z,4.70
2018-02-21T08:39:05.032Z,4.70
2018-02-21T08:41:32.504Z,4.60
2018-02-21T08:44:00.760Z,4.10
2018-02-21T08:46:28.248Z,4.00
2018-02-21T08:48:56.495Z,4.30
2018-02-21T08:51:23.990Z,4.30
2018-02-21T08:53:51.464Z,4.60
2018-02-21T08:56:18.975Z,4.60
2018-02-21T08:58:47.284Z,4.60
2018-02-21T09:01:14.856Z,4.50
2018-02-21T09:03:42.337Z,4.80
2018-02-21T09:06:09.872Z,5.40
2018-02-21T09:08:37.349Z,5.90
2018-02-21T09:11:04.832Z,6.30
2018-02-21T09:13:33.072Z,7.10
2018-02-21T09:16:00.573Z,7.10
2018-02-21T09:18:28.832Z,7.70
2018-02-21T09:20:56.327Z,7.60
2018-02-21T09:23:23.804Z,7.30
2018-02-21T09:25:51.328Z,7.30
2018-02-21T09:28:19.579Z,6.60
2018-02-21T09:30:47.052Z,6.60
2018-02-21T09:33:14.540Z,6.30
2018-02-21T09:35:42.019Z,6.10
2018-02-21T09:38:09.573Z,6.00
2018-02-21T09:40:37.075Z,6.10
2018-02-21T09:43:04.564Z,6.40
2018-02-21T09:45:32.048Z,6.80
2018-02-21T09:47:59.528Z,6.70
2018-02-21T09:50:27.012Z,6.40
2018-02-21T09:52:54.572Z,6.30
2018-02-21T09:55:22.825Z,6.80
2018-02-21T09:57:50.303Z,6.70
2018-02-21T10:00:17.784Z,7.30
2018-02-21T10:02:45.308Z,7.40
2018-02-21T10:05:12.898Z,7.50
2018-02-21T10:07:40.380Z,7.60
2018-02-21T10:10:07.868Z,7.60
2018-02-21T10:12:35.357Z,7.60
2018-02-21T10:15:03.666Z,8.10
2018-02-21T10:17:31.945Z,8.00
2018-02-21T10:19:59.432Z,8.00
2018-02-21T10:22:26.918Z,8.00
2018-02-21T10:24:55.176Z,8.30
2018-02-21T10:27:22.651Z,8.20
2018-02-21T10:29:50.904Z,9.00
2018-02-21T10:32:18.381Z,8.90
2018-02-21T10:34:45.941Z,9.50
2018-02-21T10:37:13.655Z,10.10
2018-02-21T10:39:41.152Z,10.50
2018-02-21T10:42:08.631Z,10.30
2018-02-21T10:44:36.894Z,11.00
2018-02-21T10:47:04.376Z,10.90
2018-02-21T10:49:31.873Z,11.70
2018-02-21T10:51:59.406Z,12.40
2018-02-21T10:54:26.924Z,12.70
2018-02-21T10:56:55.179Z,12.10
2018-02-21T10:59:22.767Z,12.00
2018-02-21T11:01:51.028Z,11.50
2018-02-21T11:04:19.285Z,12.20
2018-02-21T11:06:46.883Z,12.10
2018-02-21T11:09:14.438Z,12.40
2018-02-21T11:11:42.703Z,12.20
2018-02-21T11:14:10.955Z,12.50
2018-02-21T11:16:38.450Z,12.40
2018-02-21T11:19:06.716Z,12.10
2018-02-21T11:21:35.031Z,11.50
2018-02-21T11:24:02.520Z,11.40
2018-02-21T11:26:30.112Z,10.90
2018-02-21T11:28:58.367Z,9.00
2018-02-21T11:31:25.945Z,8.90
2018-02-21T11:33:54.224Z,8.20
2018-02-21T11:36:22.495Z,7.90
2018-02-21T11:38:50.752Z,7.60
2018-02-21T11:41:18.348Z,7.60
2018-02-21T11:43:45.835Z,7.40
2018-02-21T11:46:13.320Z,7.70
2018-02-21T11:48:40.804Z,8.50
2018-02-21T11:51:09.063Z,11.20
2018-02-21T11:53:37.321Z,11.80
2018-02-21T11:56:04.805Z,11.80
2018-02-21T11:58:33.059Z,10.90
2018-02-21T12:01:00.544Z,10.80
2018-02-21T12:03:28.853Z,9.10
2018-02-21T12:05:56.371Z,9.00
2018-02-21T12:08:23.942Z,8.30
2018-02-21T12:10:52.229Z,7.50
2018-02-21T12:13:19.729Z,7.40
2018-02-21T12:15:47.292Z,7.40
2018-02-21T12:18:14.880Z,7.40
2018-02-21T12:20:43.161Z,9.50
2018-02-21T12:23:11.400Z,9.90
2018-02-21T12:25:38.896Z,9.80
2018-02-21T12:28:07.168Z,9.40
2018-02-21T12:30:34.661Z,9.30
2018-02-21T12:33:02.675Z,9.30
2018-02-21T12:35:30.161Z,8.80
2018-02-21T12:37:58.434Z,8.80
2018-02-21T12:40:32.477Z,8.80
2018-02-21T12:42:59.952Z,8.80
2018-02-21T12:45:27.458Z,8.80
2018-02-21T12:47:55.736Z,9.20
2018-02-21T12:50:23.985Z,9.40
2018-02-21T12:52:51.573Z,9.30
2018-02-21T12:55:19.829Z,10.30
2018-02-21T12:57:47.320Z,10.20
2018-02-21T13:00:14.832Z,10.20
2018-02-21T13:02:42.435Z,10.30
2018-02-21T13:05:09.975Z,10.40
2018-02-21T13:07:38.243Z,9.90
2018-02-21T13:10:05.814Z,9.90
2018-02-21T13:12:34.065Z,9.40
2018-02-21T13:15:01.637Z,9.30
2018-02-21T13:17:29.196Z,9.20
2018-02-21T13:19:56.680Z,8.90
2018-02-21T13:22:24.161Z,8.60
2018-02-21T13:24:51.638Z,8.70
2018-02-21T13:27:19.119Z,8.50
2018-02-21T13:29:46.791Z,8.50
2018-02-21T13:32:15.040Z,8.20
2018-02-21T13:34:42.519Z,8.20
2018-02-21T13:37:10.009Z,8.20
2018-02-21T13:39:37.537Z,8.20
2018-02-21T13:42:05.819Z,8.40
2018-02-21T13:44:33.296Z,8.40
2018-02-21T13:47:00.828Z,8.50
2018-02-21T13:49:29.105Z,8.40
2018-02-21T13:51:57.341Z,8.40
2018-02-21T13:54:24.829Z,8.40
2018-02-21T13:56:52.304Z,8.30
2018-02-21T13:59:20.560Z,8.20
2018-02-21T14:01:48.131Z,8.20
2018-02-21T14:04:16.385Z,8.40
2018-02-21T14:06:43.869Z,8.40
2018-02-21T14:09:12.127Z,8.70
2018-02-21T14:11:39.695Z,8.70
2018-02-21T14:14:07.964Z,9.00
2018-02-21T14:16:35.532Z,8.90
2018-02-21T14:19:03.812Z,9.40
2018-02-21T14:21:32.060Z,9.50
2018-02-21T14:23:59.724Z,9.40
2018-02-21T14:26:28.015Z,9.10
2018-02-21T14:28:56.277Z,8.80
2018-02-21T14:31:23.866Z,8.70
2018-02-21T14:33:52.140Z,8.20
2018-02-21T14:36:20.392Z,8.00
2018-02-21T14:38:48.632Z,7.80
2018-02-21T14:41:16.136Z,7.80
2018-02-21T14:43:44.385Z,7.80
2018-02-21T14:46:11.872Z,7.70
2018-02-21T14:48:39.344Z,7.80
2018-02-21T14:51:06.905Z,7.60
2018-02-21T14:53:34.387Z,7.60
2018-02-21T14:56:01.900Z,7.30
2018-02-21T14:58:29.380Z,7.20
2018-02-21T15:00:56.916Z,7.00
2018-02-21T15:03:25.176Z,6.80
2018-02-21T15:05:52.660Z,6.70
2018-02-21T15:08:20.919Z,6.70
2018-02-21T15:10:49.172Z,6.50
2018-02-21T15:13:16.648Z,6.50
2018-02-21T15:15:44.133Z,6.60
2018-02-21T15:18:11.627Z,6.70
2018-02-21T15:20:39.103Z,6.30
2018-02-21T15:23:06.688Z,6.30
2018-02-21T15:25:34.965Z,6.40
2018-02-21T15:28:03.274Z,6.50
2018-02-21T15:30:30.745Z,6.40
2018-02-21T15:32:58.223Z,6.60
2018-02-21T15:35:25.804Z,6.70
2018-02-21T15:37:53.285Z,6.90
2018-02-21T15:40:20.780Z,7.10
2018-02-21T15:42:48.321Z,7.20
2018-02-21T15:45:15.865Z,7.30
2018-02-21T15:47:43.308Z,7.30
2018-02-21T15:50:11.557Z,6.90
2018-02-21T15:52:39.132Z,6.80
2018-02-21T15:55:07.384Z,6.50
2018-02-21T15:57:34.867Z,6.50
2018-02-21T16:00:03.140Z,6.20
2018-02-21T16:02:31.388Z,6.10
2018-02-21T16:04:58.971Z,6.00
2018-02-21T16:07:28.117Z,6.00
2018-02-21T16:09:55.599Z,5.90
2018-02-21T16:12:23.088Z,5.70
2018-02-21T16:14:51.332Z,5.40
2018-02-21T16:17:18.813Z,5.40
2018-02-21T16:19:47.073Z,5.30
2018-02-21T16:22:14.580Z,5.30
2018-02-21T16:24:42.065Z,5.20
2018-02-21T16:27:09.608Z,5.20
2018-02-21T16:29:37.097Z,5.10
2018-02-21T16:32:04.578Z,5.00
2018-02-21T16:34:32.834Z,4.90
2018-02-21T16:37:00.330Z,4.80
2018-02-21T16:39:27.864Z,4.80
2018-02-21T16:41:56.129Z,4.80
2018-02-21T16:44:23.652Z,4.70
2018-02-21T16:46:51.138Z,4.80
2018-02-21T16:49:18.628Z,4.80
2018-02-21T16:51:46.879Z,4.70
2018-02-21T16:54:31.968Z,4.60
2018-02-21T16:57:00.220Z,4.60
2018-02-21T16:59:27.701Z,4.50
2018-02-21T17:01:59.948Z,4.60
2018-02-21T17:04:27.419Z,4.50
2018-02-21T17:06:56.022Z,4.50
2018-02-21T17:09:23.509Z,4.40
2018-02-21T17:11:50.987Z,4.30
2018-02-21T17:14:18.470Z,4.30
2018-02-21T17:16:45.948Z,4.40
2018-02-21T17:19:14.192Z,4.30
2018-02-21T17:21:41.768Z,4.30
2018-02-21T17:24:10.040Z,4.40
2018-02-21T17:26:38.315Z,4.40
2018-02-21T17:29:06.563Z,4.40
2018-02-21T17:31:34.061Z,4.40
2018-02-21T17:34:02.312Z,4.50
2018-02-21T17:36:29.783Z,4.40
2018-02-21T17:38:58.035Z,4.50
2018-02-21T17:41:31.183Z,4.50
2018-02-21T17:43:58.704Z,4.50
2018-02-21T17:46:26.956Z,4.40
2018-02-21T17:48:54.545Z,4.30
2018-02-21T17:51:22.025Z,4.30
2018-02-21T17:53:49.558Z,4.30
2018-02-21T17:56:17.812Z,4.20
2018-02-21T17:58:45.286Z,4.20
2018-02-21T18:01:13.536Z,4.30
2018-02-21T18:03:41.050Z,4.20
2018-02-21T18:06:08.579Z,4.30
2018-02-21T18:08:36.851Z,4.30
2018-02-21T18:11:04.408Z,4.20
2018-02-21T18:13:31.952Z,4.30
2018-02-21T18:15:59.555Z,4.20
2018-02-21T18:18:27.077Z,4.20
2018-02-21T18:20:55.372Z,4.20
2018-02-21T18:23:23.632Z,4.20
2018-02-21T18:25:51.126Z,4.10
2018-02-21T18:28:18.604Z,4.20
2018-02-21T18:30:46.093Z,4.20
2018-02-21T18:33:13.676Z,4.20
2018-02-21T18:35:41.991Z,4.00
2018-02-21T18:38:10.203Z,4.00
2018-02-21T18:40:37.729Z,3.90
2018-02-21T18:43:05.212Z,4.00
2018-02-21T18:45:32.795Z,4.00
2018-02-21T18:48:01.047Z,3.90
2018-02-21T18:50:28.528Z,3.90
2018-02-21T18:52:56.777Z,4.00
2018-02-21T18:55:24.255Z,4.00
2018-02-21T18:57:51.746Z,4.00
2018-02-21T19:00:19.271Z,4.00
2018-02-21T19:02:46.835Z,4.10
2018-02-21T19:05:15.088Z,4.10
2018-02-21T19:07:42.581Z,4.10
2018-02-21T19:10:10.836Z,4.10
2018-02-21T19:12:39.113Z,4.00
2018-02-21T19:15:07.492Z,4.10
2018-02-21T19:17:35.820Z,4.00
2018-02-21T19:20:04.156Z,4.00
2018-02-21T19:22:31.638Z,4.00
2018-02-21T19:24:59.128Z,4.00
2018-02-21T19:27:26.630Z,4.00
2018-02-21T19:29:54.910Z,3.90
2018-02-21T19:32:23.169Z,3.90
2018-02-21T19:34:51.431Z,3.90
2018-02-21T19:37:18.959Z,3.80
2018-02-21T19:39:46.476Z,3.90
2018-02-21T19:42:14.780Z,3.90
2018-02-21T19:44:42.269Z,3.80
2018-02-21T19:47:09.769Z,3.80
2018-02-21T19:49:37.268Z,3.80
2018-02-21T19:52:04.756Z,3.80
2018-02-21T19:54:32.332Z,3.80
2018-02-21T19:57:00.585Z,3.80
2018-02-21T19:59:28.072Z,3.80
2018-02-21T20:01:56.359Z,3.80
2018-02-21T20:04:23.877Z,3.70
2018-02-21T20:06:51.383Z,3.80
2018-02-21T20:09:18.885Z,3.80
2018-02-21T20:11:46.384Z,3.80
2018-02-21T20:14:13.888Z,3.80
2018-02-21T20:16:41.419Z,3.80
2018-02-21T20:19:08.865Z,3.80
2018-02-21T20:21:36.352Z,3.80
2018-02-21T20:24:03.843Z,3.80
2018-02-21T20:26:31.341Z,3.70
2018-02-21T20:28:58.945Z,3.70
2018-02-21T20:31:26.684Z,3.70
2018-02-21T20:33:54.173Z,3.70
2018-02-21T20:36:21.680Z,3.70
2018-02-21T20:38:49.203Z,3.70
2018-02-21T20:41:16.683Z,3.70
2018-02-21T20:43:44.327Z,3.70
2018-02-21T20:46:12.657Z,3.70
2018-02-21T20:48:40.139Z,3.70
2018-02-21T20:51:08.313Z,3.60
2018-02-21T20:53:35.788Z,3.70
2018-02-21T20:56:03.272Z,3.70
2018-02-21T20:58:30.975Z,3.70
2018-02-21T21:00:58.857Z,3.70
2018-02-21T21:03:26.436Z,3.70
2018-02-21T21:05:54.684Z,3.70
2018-02-21T21:08:22.164Z,3.60
2018-02-21T21:10:49.649Z,3.70
2018-02-21T21:13:17.148Z,3.60
2018-02-21T21:15:44.747Z,3.60
2018-02-21T21:18:12.996Z,3.60
2018-02-21T21:20:40.480Z,3.50
2018-02-21T21:23:08.796Z,3.60
2018-02-21T21:25:36.280Z,3.50
2018-02-21T21:28:03.786Z,3.60
2018-02-21T21:30:32.029Z,3.60
2018-02-21T21:32:59.729Z,3.50
2018-02-21T21:35:27.213Z,3.60
2018-02-21T21:37:54.718Z,3.60
2018-02-21T21:40:22.972Z,3.70
2018-02-21T21:42:50.551Z,3.60
2018-02-21T21:45:18.880Z,3.70
2018-02-21T21:47:47.084Z,3.70
2018-02-21T21:50:14.569Z,3.60
2018-02-21T21:52:42.812Z,3.70
2018-02-21T21:55:10.411Z,3.70
2018-02-21T21:57:38.651Z,3.60
2018-02-21T22:00:06.155Z,3.60
2018-02-21T22:02:33.652Z,3.60
2018-02-21T22:05:01.137Z,3.60
2018-02-21T22:07:28.623Z,3.70
2018-02-21T22:09:56.103Z,3.70
2018-02-21T22:12:23.596Z,3.60
2018-02-21T22:14:51.172Z,3.60
2018-02-21T22:17:19.428Z,3.50
2018-02-21T22:19:46.905Z,3.50
2018-02-21T22:22:15.159Z,3.50
2018-02-21T22:24:42.643Z,3.50
2018-02-21T22:27:10.991Z,3.50
2018-02-21T22:29:38.496Z,3.50
2018-02-21T22:32:06.035Z,3.50
2018-02-21T22:34:34.276Z,3.40
2018-02-21T22:37:01.748Z,3.40
2018-02-21T22:39:30.008Z,3.40
2018-02-21T22:41:57.488Z,3.30
2018-02-21T22:44:25.056Z,3.20
2018-02-21T22:46:53.304Z,3.20
2018-02-21T22:49:20.820Z,3.20
2018-02-21T22:51:48.328Z,3.20
2018-02-21T22:54:15.805Z,3.20
2018-02-21T22:56:44.080Z,3.20
2018-02-21T22:59:12.356Z,3.20
2018-02-21T23:01:40.593Z,3.20
2018-02-21T23:04:08.187Z,3.20
2018-02-21T23:06:36.449Z,3.20
2018-02-21T23:09:03.941Z,3.20
2018-02-21T23:11:31.455Z,3.20
2018-02-21T23:13:59.080Z,3.10
2018-02-21T23:16:26.568Z,3.10
2018-02-21T23:18:54.048Z,3.00
2018-02-21T23:21:21.532Z,2.90
2018-02-21T23:23:49.016Z,2.90
2018-02-21T23:26:16.533Z,2.80
2018-02-21T23:28:44.780Z,2.70
2018-02-21T23:31:12.269Z,2.60
2018-02-21T23:33:40.523Z,2.60
2018-02-21T23:36:08.100Z,2.60
2018-02-21T23:38:36.508Z,2.70
2018-02-21T23:41:03.988Z,2.60
2018-02-21T23:43:31.466Z,2.70
2018-02-21T23:45:58.949Z,2.60
2018-02-21T23:48:27.207Z,2.50
2018-02-21T23:50:54.718Z,2.50
2018-02-21T23:53:22.210Z,2.60
2018-02-21T23:55:49.736Z,2.60
2018-02-21T23:58:17.255Z,2.50
